Time;durP1;ratioP1;P1;durP2;ratioP2;P2;SDS_P1;SDS_P2;PMS_P1;PMS_P2;Temp;Humidity;BMP_temperature;BMP_pressure;BME280_temperature;BME280_humidity;BME280_pressure;Samples;Min_cycle;Max_cycle;Signal;HPM_P1;HPM_P2
2022/10/10 00:01:11;;;;;;;0.10;0.10;;;;;;;;;;4956516;28;20630;-69
2022/10/10 00:03:39;;;;;;;0.10;0.10;;;;;;;;;;4972748;28;20633;-69
2022/10/10 00:06:07;;;;;;;0.10;0.10;;;;;;;;;;4965395;28;20208;-68
2022/10/10 00:08:34;;;;;;;0.10;0.10;;;;;;;;;;4965475;28;20669;-69
2022/10/10 00:11:02;;;;;;;0.10;0.10;;;;;;;;;;4972521;28;20641;-68
2022/10/10 00:13:30;;;;;;;0.10;0.10;;;;;;;;;;4952462;28;21245;-68
2022/10/10 00:15:58;;;;;;;0.10;0.10;;;;;;;;;;4963567;28;20669;-68
2022/10/10 00:18:25;;;;;;;0.10;0.10;;;;;;;;;;4957138;28;20226;-69
2022/10/10 00:20:53;;;;;;;0.10;0.10;;;;;;;;;;4954175;28;20688;-68
2022/10/10 00:23:21;;;;;;;0.10;0.10;;;;;;;;;;4958606;28;20650;-68
2022/10/10 00:25:49;;;;;;;0.10;0.10;;;;;;;;;;4961258;28;20618;-69
2022/10/10 00:28:17;;;;;;;0.10;0.10;;;;;;;;;;4972379;28;20663;-69
2022/10/10 00:30:47;;;;;;;0.10;0.10;;;;;;;;;;4958811;28;20632;-68
2022/10/10 00:33:14;;;;;;;0.00;0.00;;;;;;;;;;4964066;28;20675;-68
2022/10/10 00:35:42;;;;;;;0.10;0.10;;;;;;;;;;4975750;28;20657;-68
2022/10/10 00:38:09;;;;;;;0.00;0.00;;;;;;;;;;4955684;28;20686;-69
2022/10/10 00:40:44;;;;;;;0.10;0.10;;;;;;;;;;4956082;28;20618;-69
2022/10/10 00:43:13;;;;;;;0.10;0.10;;;;;;;;;;4955745;28;20720;-69
2022/10/10 00:45:41;;;;;;;0.10;0.10;;;;;;;;;;4962010;28;21273;-69
2022/10/10 00:48:11;;;;;;;0.10;0.10;;;;;;;;;;4974083;28;20757;-68
2022/10/10 00:50:42;;;;;;;0.10;0.10;;;;;;;;;;4972347;28;20641;-69
2022/10/10 00:53:10;;;;;;;0.10;0.10;;;;;;;;;;4971473;28;20749;-70
2022/10/10 00:55:38;;;;;;;0.10;0.10;;;;;;;;;;4952788;28;20650;-68
2022/10/10 00:58:06;;;;;;;0.10;0.10;;;;;;;;;;4970675;28;20749;-70
2022/10/10 01:00:33;;;;;;;0.10;0.10;;;;;;;;;;4957926;28;21190;-68
2022/10/10 01:03:01;;;;;;;0.00;0.00;;;;;;;;;;4958674;28;20626;-69
2022/10/10 01:05:30;;;;;;;0.10;0.10;;;;;;;;;;4952826;28;20609;-69
2022/10/10 01:07:57;;;;;;;0.10;0.10;;;;;;;;;;4969295;28;20665;-68
2022/10/10 01:10:25;;;;;;;0.10;0.10;;;;;;;;;;4954234;28;20718;-69
2022/10/10 01:13:05;;;;;;;0.10;0.10;;;8.60;99.90;;;;;;4968044;28;20728;-68
2022/10/10 01:15:41;;;;;;;0.10;0.10;;;8.60;99.90;;;;;;4969322;28;20661;-69
2022/10/10 01:18:14;;;;;;;0.10;0.10;;;;;;;;;;4969470;28;20689;-68
2022/10/10 01:20:51;;;;;;;0.00;0.00;;;;;;;;;;4968322;28;20625;-69
2022/10/10 01:23:42;;;;;;;0.10;0.10;;;;;;;;;;4964927;28;20633;-70
2022/10/10 01:26:17;;;;;;;0.10;0.10;;;;;;;;;;4951043;28;21317;-69
2022/10/10 01:28:49;;;;;;;0.10;0.10;;;;;;;;;;4953854;28;20641;-69
2022/10/10 01:31:21;;;;;;;0.10;0.10;;;;;;;;;;4969036;28;20642;-69
2022/10/10 01:33:54;;;;;;;0.10;0.10;;;;;;;;;;4969436;28;20662;-70
2022/10/10 01:36:23;;;;;;;0.10;0.10;;;;;;;;;;4953007;28;20666;-69
2022/10/10 01:38:53;;;;;;;0.00;0.00;;;;;;;;;;4951536;28;20734;-69
2022/10/10 01:41:23;;;;;;;0.10;0.10;;;;;;;;;;4966457;28;20638;-69
2022/10/10 01:43:54;;;;;;;0.07;0.07;;;;;;;;;;4955342;28;21100;-68
2022/10/10 01:46:22;;;;;;;0.00;0.00;;;;;;;;;;4971302;28;20630;-70
2022/10/10 01:48:52;;;;;;;0.10;0.10;;;;;;;;;;4951131;28;20672;-69
2022/10/10 01:51:24;;;;;;;0.10;0.10;;;;;;;;;;4969058;28;20637;-69
2022/10/10 01:53:58;;;;;;;0.10;0.10;;;;;;;;;;4954931;28;20669;-70
2022/10/10 01:56:31;;;;;;;0.10;0.10;;;;;;;;;;4951973;28;20704;-69
2022/10/10 01:59:11;;;;;;;0.10;0.10;;;;;;;;;;4959298;28;20634;-70
2022/10/10 02:01:45;;;;;;;0.10;0.10;;;;;;;;;;4956718;28;20760;-69
2022/10/10 02:04:18;;;;;;;0.10;0.10;;;;;;;;;;4947789;28;20645;-70
2022/10/10 02:06:48;;;;;;;0.10;0.10;;;;;;;;;;4969666;28;20614;-70
2022/10/10 02:09:20;;;;;;;0.10;0.10;;;;;;;;;;4968365;28;20637;-69
2022/10/10 02:11:48;;;;;;;0.10;0.10;;;;;;;;;;4955304;28;20680;-70
2022/10/10 02:14:19;;;;;;;0.10;0.10;;;;;;;;;;4952303;28;20633;-70
2022/10/10 02:16:48;;;;;;;0.10;0.10;;;;;;;;;;4964950;28;20800;-69
2022/10/10 02:19:18;;;;;;;0.00;0.00;;;;;;;;;;4972615;28;20675;-70
2022/10/10 02:21:46;;;;;;;0.10;0.10;;;;;;;;;;4968799;28;20633;-68
2022/10/10 02:24:13;;;;;;;0.10;0.10;;;;;;;;;;4948067;28;20759;-69
2022/10/10 02:26:43;;;;;;;0.10;0.10;;;;;;;;;;4968562;28;20613;-69
2022/10/10 02:29:11;;;;;;;0.10;0.10;;;;;;;;;;4970050;28;21059;-69
2022/10/10 02:31:42;;;;;;;0.10;0.10;;;;;;;;;;4957109;28;20617;-70
2022/10/10 02:34:11;;;;;;;0.10;0.10;;;;;;;;;;4951268;28;21052;-69
2022/10/10 02:36:39;;;;;;;0.00;0.00;;;;;;;;;;4968509;28;20736;-70
2022/10/10 02:39:07;;;;;;;0.00;0.00;;;;;;;;;;4953005;28;20613;-69
2022/10/10 02:41:36;;;;;;;0.10;0.10;;;;;;;;;;4952305;28;20704;-69
2022/10/10 02:44:04;;;;;;;0.10;0.10;;;;;;;;;;4953359;28;20620;-70
2022/10/10 02:46:31;;;;;;;0.10;0.10;;;;;;;;;;4950390;28;20753;-69
2022/10/10 02:49:02;;;;;;;0.10;0.10;;;;;;;;;;4957836;28;20217;-69
2022/10/10 02:51:29;;;;;;;0.10;0.10;;;;;;;;;;4947723;28;20689;-69
2022/10/10 02:53:57;;;;;;;0.10;0.10;;;;;;;;;;4952806;28;20635;-70
2022/10/10 02:56:24;;;;;;;0.10;0.10;;;;;;;;;;4951156;28;20669;-69
2022/10/10 02:58:51;;;;;;;0.10;0.10;;;;;;;;;;4969640;28;20623;-69
2022/10/10 03:01:19;;;;;;;0.10;0.10;;;;;;;;;;4968830;28;20652;-69
2022/10/10 03:03:46;;;;;;;0.10;0.10;;;;;;;;;;4959231;28;20664;-69
2022/10/10 03:06:15;;;;;;;0.10;0.10;;;;;;;;;;4958998;28;20629;-69
2022/10/10 03:08:43;;;;;;;0.10;0.10;;;;;;;;;;4951688;28;20674;-68
2022/10/10 03:11:10;;;;;;;0.10;0.10;;;;;;;;;;4966790;28;21289;-70
2022/10/10 03:13:38;;;;;;;0.10;0.10;;;;;;;;;;4950727;28;20725;-70
2022/10/10 03:16:05;;;;;;;0.10;0.10;;;;;;;;;;4966744;28;20672;-70
2022/10/10 03:18:33;;;;;;;0.10;0.10;;;;;;;;;;4950600;28;20657;-69
2022/10/10 03:21:00;;;;;;;0.00;0.00;;;;;;;;;;4948141;28;20658;-69
2022/10/10 03:23:29;;;;;;;0.00;0.00;;;;;;;;;;4952892;28;20630;-69
2022/10/10 03:25:56;;;;;;;0.10;0.10;;;;;;;;;;4965370;28;20636;-70
2022/10/10 03:28:24;;;;;;;0.10;0.10;;;;;;;;;;4950981;28;20653;-69
2022/10/10 03:30:51;;;;;;;0.10;0.10;;;;;;;;;;4949119;28;20633;-69
2022/10/10 03:33:18;;;;;;;0.10;0.10;;;;;;;;;;4953017;28;20642;-69
2022/10/10 03:35:46;;;;;;;0.10;0.10;;;;;;;;;;4967530;28;21022;-69
2022/10/10 03:38:14;;;;;;;0.10;0.10;;;;;;;;;;4966900;28;20752;-69
2022/10/10 03:40:43;;;;;;;0.10;0.10;;;;;;;;;;4951303;28;20629;-70
2022/10/10 03:43:11;;;;;;;0.10;0.10;;;;;;;;;;4954501;28;20625;-69
2022/10/10 03:45:39;;;;;;;0.10;0.10;;;;;;;;;;4950310;28;20716;-69
2022/10/10 03:48:06;;;;;;;0.10;0.10;;;7.60;99.90;;;;;;4968172;28;20657;-69
2022/10/10 03:50:33;;;;;;;0.10;0.10;;;;;;;;;;4965222;28;20626;-69
2022/10/10 03:53:01;;;;;;;0.10;0.10;;;;;;;;;;4951080;28;20646;-69
2022/10/10 03:55:28;;;;;;;0.10;0.10;;;7.60;99.90;;;;;;4967369;28;20634;-69
2022/10/10 03:57:57;;;;;;;0.10;0.10;;;;;;;;;;4957785;28;20670;-69
2022/10/10 04:00:24;;;;;;;0.10;0.10;;;;;;;;;;4968689;28;20632;-69
2022/10/10 04:02:52;;;;;;;0.10;0.10;;;;;;;;;;4965333;28;20640;-69
2022/10/10 04:05:20;;;;;;;0.10;0.10;;;7.60;99.90;;;;;;4955165;28;20625;-68
2022/10/10 04:07:46;;;;;;;0.10;0.10;;;7.50;99.90;;;;;;4950652;28;20666;-69
2022/10/10 04:10:14;;;;;;;0.00;0.00;;;7.40;99.90;;;;;;4955233;28;20636;-69
2022/10/10 04:12:41;;;;;;;0.10;0.10;;;7.50;99.90;;;;;;4949216;28;20657;-69
2022/10/10 04:15:10;;;;;;;0.10;0.10;;;7.40;99.90;;;;;;4952739;28;20668;-69
2022/10/10 04:17:37;;;;;;;0.10;0.10;;;7.40;99.90;;;;;;4954738;28;20807;-68
2022/10/10 04:20:05;;;;;;;0.10;0.10;;;7.50;99.90;;;;;;4954155;28;20609;-68
2022/10/10 04:22:32;;;;;;;0.10;0.10;;;7.50;99.90;;;;;;4951055;28;21115;-68
2022/10/10 04:24:59;;;;;;;0.10;0.10;;;7.40;99.90;;;;;;4964561;28;20639;-69
2022/10/10 04:27:27;;;;;;;0.10;0.10;;;7.40;99.90;;;;;;4954555;28;20676;-69
2022/10/10 04:29:54;;;;;;;0.10;0.10;;;7.40;99.90;;;;;;4951928;28;20641;-69
2022/10/10 04:32:22;;;;;;;0.10;0.10;;;7.40;99.90;;;;;;4957822;28;20638;-69
2022/10/10 04:34:52;;;;;;;0.10;0.10;;;7.40;99.90;;;;;;4961553;28;20727;-69
2022/10/10 04:37:19;;;;;;;0.10;0.10;;;7.40;99.90;;;;;;4952771;28;20714;-68
2022/10/10 04:39:47;;;;;;;0.10;0.10;;;7.50;99.90;;;;;;4969915;28;20646;-67
2022/10/10 04:42:18;;;;;;;0.00;0.00;;;7.50;99.90;;;;;;4956764;28;20633;-68
2022/10/10 04:44:45;;;;;;;0.10;0.10;;;7.50;99.90;;;;;;4954065;28;20634;-68
2022/10/10 04:47:12;;;;;;;0.10;0.10;;;7.50;99.90;;;;;;4971323;28;20669;-67
2022/10/10 04:49:41;;;;;;;0.10;0.10;;;7.40;99.90;;;;;;4967949;28;20626;-69
2022/10/10 04:52:09;;;;;;;0.10;0.10;;;7.50;99.90;;;;;;4968581;28;20626;-68
2022/10/10 04:54:36;;;;;;;0.10;0.10;;;7.40;99.90;;;;;;4955500;28;20629;-68
2022/10/10 04:57:04;;;;;;;0.00;0.00;;;7.70;99.90;;;;;;4956395;28;20708;-69
2022/10/10 04:59:33;;;;;;;0.10;0.10;;;7.40;99.90;;;;;;4969840;28;20734;-68
2022/10/10 05:02:00;;;;;;;0.10;0.10;;;;;;;;;;4955667;28;20632;-69
2022/10/10 05:04:28;;;;;;;0.10;0.10;;;;;;;;;;4970433;28;20644;-67
2022/10/10 05:06:57;;;;;;;0.10;0.10;;;;;;;;;;4955086;28;20674;-67
2022/10/10 05:09:24;;;;;;;0.10;0.10;;;;;;;;;;4957839;28;20683;-67
2022/10/10 05:11:52;;;;;;;0.10;0.10;;;;;;;;;;4962461;28;20700;-69
2022/10/10 05:14:19;;;;;;;0.10;0.10;;;;;;;;;;4959209;28;20692;-68
2022/10/10 05:16:46;;;;;;;0.10;0.10;;;;;;;;;;4973242;28;20653;-68
2022/10/10 05:19:13;;;;;;;0.10;0.10;;;;;;;;;;4955449;28;20645;-68
2022/10/10 05:21:41;;;;;;;0.10;0.10;;;;;;;;;;4969254;28;20732;-69
2022/10/10 05:24:12;;;;;;;0.10;0.10;;;;;;;;;;4970020;28;20700;-69
2022/10/10 05:26:40;;;;;;;0.10;0.10;;;;;;;;;;4955832;28;20636;-69
2022/10/10 05:29:08;;;;;;;0.10;0.10;;;;;;;;;;4952110;28;20653;-69
2022/10/10 05:31:35;;;;;;;0.10;0.10;;;;;;;;;;4952290;28;20708;-70
2022/10/10 05:34:02;;;;;;;0.10;0.10;;;;;;;;;;4950808;28;20633;-68
2022/10/10 05:36:30;;;;;;;0.10;0.10;;;;;;;;;;4953836;28;20646;-66
2022/10/10 05:38:58;;;;;;;0.10;0.10;;;;;;;;;;4961147;28;20633;-69
2022/10/10 05:41:27;;;;;;;0.10;0.10;;;;;;;;;;4977800;28;20629;-67
2022/10/10 05:43:54;;;;;;;0.10;0.10;;;;;;;;;;4972472;28;20651;-66
2022/10/10 05:46:23;;;;;;;0.10;0.10;;;;;;;;;;4967943;28;20737;-67
2022/10/10 05:48:52;;;;;;;0.00;0.00;;;;;;;;;;4959506;28;20675;-67
2022/10/10 05:51:19;;;;;;;0.10;0.10;;;;;;;;;;4952211;28;20646;-66
2022/10/10 05:53:50;;;;;;;0.10;0.10;;;;;;;;;;4969002;28;20680;-67
2022/10/10 05:56:17;;;;;;;0.10;0.10;;;;;;;;;;4965782;28;20632;-67
2022/10/10 05:58:46;;;;;;;0.10;0.10;;;;;;;;;;4953959;28;20756;-67
2022/10/10 06:01:13;;;;;;;0.10;0.10;;;;;;;;;;4966423;28;20636;-67
2022/10/10 06:03:41;;;;;;;0.10;0.10;;;;;;;;;;4952046;28;20633;-67
2022/10/10 06:06:08;;;;;;;0.10;0.10;;;;;;;;;;4951509;28;20617;-67
2022/10/10 06:08:36;;;;;;;0.10;0.10;;;;;;;;;;4969231;28;20664;-66
2022/10/10 06:11:07;;;;;;;0.10;0.10;;;;;;;;;;4955720;28;20641;-66
2022/10/10 06:13:35;;;;;;;0.10;0.10;;;;;;;;;;4967469;28;20633;-67
2022/10/10 06:16:04;;;;;;;0.10;0.10;;;;;;;;;;4969946;28;20688;-69
2022/10/10 06:18:31;;;;;;;0.10;0.10;;;;;;;;;;4968532;28;20678;-68
2022/10/10 06:21:02;;;;;;;0.10;0.10;;;;;;;;;;4958532;28;20630;-68
2022/10/10 06:23:29;;;;;;;0.10;0.10;;;;;;;;;;4950110;28;20633;-67
2022/10/10 06:25:57;;;;;;;0.10;0.10;;;;;;;;;;4950381;28;20665;-68
2022/10/10 06:28:24;;;;;;;0.10;0.10;;;;;;;;;;4954255;28;20757;-70
2022/10/10 06:30:52;;;;;;;0.10;0.10;;;;;;;;;;4967730;28;20626;-68
2022/10/10 06:33:21;;;;;;;0.10;0.10;;;;;;;;;;4951148;28;20665;-67
2022/10/10 06:35:49;;;;;;;0.10;0.10;;;;;;;;;;4957514;28;20629;-67
2022/10/10 06:38:17;;;;;;;0.10;0.10;;;;;;;;;;4949591;28;20708;-68
2022/10/10 06:40:45;;;;;;;0.10;0.10;;;;;;;;;;4955206;28;20738;-68
2022/10/10 06:43:14;;;;;;;0.10;0.10;;;;;;;;;;4950597;28;20769;-67
2022/10/10 06:45:42;;;;;;;0.10;0.10;;;;;;;;;;4953748;28;20638;-68
2022/10/10 06:48:10;;;;;;;0.10;0.10;;;;;;;;;;4965475;28;20670;-67
2022/10/10 06:50:39;;;;;;;0.10;0.10;;;;;;;;;;4967715;28;20638;-68
2022/10/10 06:53:07;;;;;;;0.10;0.10;;;;;;;;;;4955357;28;20653;-67
2022/10/10 06:55:34;;;;;;;0.10;0.10;;;;;;;;;;4949730;28;20726;-67
2022/10/10 06:58:02;;;;;;;0.10;0.10;;;;;;;;;;4969470;28;20704;-68
2022/10/10 07:00:29;;;;;;;0.10;0.10;;;;;;;;;;4952356;28;20633;-67
2022/10/10 07:02:57;;;;;;;0.10;0.10;;;;;;;;;;4959370;28;20634;-67
2022/10/10 07:05:27;;;;;;;0.10;0.10;;;;;;;;;;4952441;28;20740;-68
2022/10/10 07:07:56;;;;;;;0.10;0.10;;;;;;;;;;4958586;28;20670;-67
2022/10/10 07:10:23;;;;;;;0.10;0.10;;;;;;;;;;4955585;28;20617;-67
2022/10/10 07:12:51;;;;;;;0.10;0.10;;;;;;;;;;4968262;28;20630;-67
2022/10/10 07:15:18;;;;;;;0.10;0.10;;;;;;;;;;4957896;28;20622;-68
2022/10/10 07:17:46;;;;;;;0.10;0.10;;;;;;;;;;4950795;28;20670;-68
2022/10/10 07:20:13;;;;;;;0.10;0.10;;;;;;;;;;4968569;28;20630;-67
2022/10/10 07:22:41;;;;;;;0.10;0.10;;;;;;;;;;4965098;28;21274;-68
2022/10/10 07:25:10;;;;;;;0.10;0.10;;;;;;;;;;4972538;28;20646;-68
2022/10/10 07:27:39;;;;;;;0.10;0.10;;;;;;;;;;4952161;28;20649;-68
2022/10/10 07:30:07;;;;;;;0.10;0.10;;;;;;;;;;4950742;28;20626;-68
2022/10/10 07:32:35;;;;;;;0.10;0.10;;;;;;;;;;4949234;28;20653;-68
2022/10/10 07:35:02;;;;;;;0.10;0.10;;;;;;;;;;4954734;28;20676;-68
2022/10/10 07:37:30;;;;;;;0.10;0.10;;;;;;;;;;4966805;28;20756;-69
2022/10/10 07:39:58;;;;;;;0.10;0.10;;;;;;;;;;4949190;28;20614;-69
2022/10/10 07:42:27;;;;;;;0.10;0.10;;;;;;;;;;4958853;28;20637;-68
2022/10/10 07:44:55;;;;;;;0.10;0.10;;;;;;;;;;4968491;28;20689;-69
2022/10/10 07:47:23;;;;;;;0.10;0.10;;;;;;;;;;4952491;28;20769;-68
2022/10/10 07:49:51;;;;;;;0.10;0.10;;;;;;;;;;4970458;28;20636;-70
2022/10/10 07:52:19;;;;;;;0.10;0.10;;;;;;;;;;4972189;28;20625;-69
2022/10/10 07:54:50;;;;;;;0.10;0.10;;;;;;;;;;4958464;28;20633;-69
2022/10/10 07:57:21;;;;;;;0.10;0.10;;;;;;;;;;4968205;28;20665;-69
2022/10/10 07:59:51;;;;;;;0.10;0.10;;;;;;;;;;4968561;28;20634;-69
2022/10/10 08:02:18;;;;;;;0.10;0.10;;;;;;;;;;4956265;28;20648;-68
2022/10/10 08:04:46;;;;;;;0.10;0.10;;;;;;;;;;4963266;28;20625;-69
2022/10/10 08:07:13;;;;;;;0.10;0.10;;;;;;;;;;4973069;28;20676;-70
2022/10/10 08:09:41;;;;;;;0.10;0.10;;;;;;;;;;4954808;28;20625;-70
2022/10/10 08:12:09;;;;;;;0.10;0.10;;;;;;;;;;4957100;28;20642;-68
2022/10/10 08:14:37;;;;;;;0.10;0.10;;;;;;;;;;4957119;28;20626;-71
2022/10/10 08:17:06;;;;;;;0.10;0.10;;;;;;;;;;4957755;28;20761;-72
2022/10/10 08:19:34;;;;;;;0.10;0.10;;;;;;;;;;4951781;28;20690;-70
2022/10/10 08:22:02;;;;;;;0.10;0.10;;;;;;;;;;4960171;28;20662;-70
2022/10/10 08:24:30;;;;;;;0.10;0.10;;;;;;;;;;4973097;28;20633;-69
2022/10/10 08:26:58;;;;;;;0.10;0.10;;;;;;;;;;4962987;28;20367;-70
2022/10/10 08:29:25;;;;;;;0.10;0.10;;;;;;;;;;4958432;28;20197;-69
2022/10/10 08:31:53;;;;;;;0.10;0.10;;;;;;;;;;4954095;28;20601;-68
2022/10/10 08:34:21;;;;;;;0.10;0.10;;;;;;;;;;4951497;28;20634;-69
2022/10/10 08:36:49;;;;;;;0.00;0.00;;;;;;;;;;4955474;28;20236;-68
2022/10/10 08:39:17;;;;;;;0.10;0.10;;;;;;;;;;4951874;28;20219;-68
2022/10/10 08:41:49;;;;;;;0.10;0.10;;;;;;;;;;4975757;28;20218;-70
2022/10/10 08:44:19;;;;;;;0.10;0.10;;;;;;;;;;4955687;28;20222;-70
2022/10/10 08:46:50;;;;;;;0.10;0.10;;;13.30;99.90;;;;;;4969682;28;20206;-69
2022/10/10 08:49:21;;;;;;;0.10;0.10;;;;;;;;;;4959142;28;20202;-69
2022/10/10 08:52:00;;;;;;;0.10;0.10;;;13.80;99.90;;;;;;4960159;28;20689;-68
2022/10/10 08:54:29;;;;;;;0.10;0.10;;;14.10;99.90;;;;;;4969640;28;20210;-70
2022/10/10 08:56:58;;;;;;;0.10;0.10;;;;;;;;;;4956925;28;20257;-69
2022/10/10 08:59:30;;;;;;;0.10;0.10;;;14.40;99.90;;;;;;4969698;28;20218;-69
2022/10/10 09:02:00;;;;;;;0.10;0.10;;;;;;;;;;4952938;28;20207;-69
2022/10/10 09:04:31;;;;;;;0.00;0.00;;;;;;;;;;4958684;28;20195;-70
2022/10/10 09:07:11;;;;;;;0.10;0.10;;;;;;;;;;4956714;28;20226;-69
2022/10/10 09:09:47;;;;;;;0.10;0.10;;;;;;;;;;4972710;28;20194;-69
2022/10/10 09:12:18;;;;;;;0.07;0.07;;;;;;;;;;4970610;28;20207;-70
2022/10/10 09:14:51;;;;;;;0.10;0.10;;;;;;;;;;4967103;28;20206;-69
2022/10/10 09:17:23;;;;;;;0.10;0.10;;;;;;;;;;4969948;28;20276;-69
2022/10/10 09:20:02;;;;;;;0.10;0.10;;;14.50;99.90;;;;;;4953314;28;20229;-69
2022/10/10 09:22:35;;;;;;;0.00;0.00;;;15.50;99.90;;;;;;4952504;28;20237;-69
2022/10/10 09:25:11;;;;;;;0.10;0.10;;;15.70;99.90;;;;;;4953386;28;20225;-69
2022/10/10 09:27:44;;;;;;;0.00;0.00;;;15.80;99.90;;;;;;4950532;28;20330;-70
2022/10/10 09:30:18;;;;;;;0.00;0.00;;;15.90;99.90;;;;;;4956517;28;20755;-68
2022/10/10 09:32:50;;;;;;;0.00;0.00;;;15.80;99.90;;;;;;4966265;28;20290;-69
2022/10/10 09:35:19;;;;;;;0.00;0.00;;;;;;;;;;4971555;28;20212;-69
2022/10/10 09:37:50;;;;;;;0.00;0.00;;;;;;;;;;4952435;28;20222;-70
2022/10/10 09:40:20;;;;;;;0.10;0.10;;;;;;;;;;4954631;28;20198;-69
2022/10/10 09:42:47;;;;;;;0.00;0.00;;;;;;;;;;4971880;28;20210;-70
2022/10/10 09:45:18;;;;;;;0.10;0.10;;;;;;;;;;4953614;28;20662;-70
2022/10/10 09:47:45;;;;;;;0.00;0.00;;;;;;;;;;4952577;28;20215;-69
2022/10/10 09:50:13;;;;;;;0.07;0.07;;;;;;;;;;4954705;28;20288;-70
2022/10/10 09:52:44;;;;;;;0.00;0.00;;;;;;;;;;4971381;28;20206;-72
2022/10/10 09:55:22;;;;;;;0.03;0.03;;;;;;;;;;4970711;28;20209;-70
2022/10/10 09:57:54;;;;;;;0.00;0.00;;;;;;;;;;4956974;28;20221;-71
2022/10/10 10:00:29;;;;;;;0.10;0.10;;;;;;;;;;4974658;28;20229;-70
2022/10/10 10:03:05;;;;;;;0.00;0.00;;;;;;;;;;4955115;28;20214;-70
2022/10/10 10:05:43;;;;;;;;;;;;;;;;;;;;;
2022/10/10 10:08:20;;;;;;;0.00;0.00;;;;;;;;;;4959295;28;20726;-71
2022/10/10 10:11:01;;;;;;;0.10;0.10;;;;;;;;;;4971871;28;20209;-70
2022/10/10 10:13:33;;;;;;;0.07;0.07;;;;;;;;;;4971577;28;20210;-70
2022/10/10 10:16:07;;;;;;;0.03;0.03;;;;;;;;;;4964635;28;20623;-71
2022/10/10 10:18:39;;;;;;;0.10;0.10;;;;;;;;;;4973513;28;20227;-71
2022/10/10 10:21:24;;;;;;;0.07;0.07;;;;;;;;;;4951592;28;20301;-70
2022/10/10 10:23:54;;;;;;;0.00;0.00;;;;;;;;;;4971901;28;20209;-70
2022/10/10 10:26:26;;;;;;;0.03;0.03;;;;;;;;;;4954151;28;20213;-71
2022/10/10 10:29:00;;;;;;;0.00;0.00;;;;;;;;;;4954384;28;20198;-71
2022/10/10 10:31:36;;;;;;;0.00;0.00;;;;;;;;;;4971059;28;20225;-69
2022/10/10 10:34:11;;;;;;;0.00;0.00;;;;;;;;;;4965808;28;20202;-68
2022/10/10 10:36:44;;;;;;;0.00;0.00;;;;;;;;;;4966295;28;20256;-71
2022/10/10 10:39:18;;;;;;;0.00;0.00;;;;;;;;;;4965688;28;20742;-70
2022/10/10 10:41:52;;;;;;;0.00;0.00;;;;;;;;;;4968524;28;20214;-69
2022/10/10 10:44:24;;;;;;;0.00;0.00;;;;;;;;;;4968990;28;20295;-72
2022/10/10 10:46:57;;;;;;;0.00;0.00;;;;;;;;;;4953419;28;20233;-69
2022/10/10 10:49:29;;;;;;;0.10;0.10;;;;;;;;;;4967074;28;20289;-69
2022/10/10 10:52:21;;;;;;;0.00;0.00;;;;;;;;;;4970231;28;20207;-70
2022/10/10 10:54:55;;;;;;;0.00;0.00;;;;;;;;;;4966674;28;20301;-69
2022/10/10 10:57:28;;;;;;;0.00;0.00;;;;;;;;;;4951362;28;20322;-69
2022/10/10 11:00:00;;;;;;;0.00;0.00;;;;;;;;;;4966834;28;20229;-69
2022/10/10 11:02:39;;;;;;;0.00;0.00;;;;;;;;;;4953953;28;20206;-70
2022/10/10 11:05:24;;;;;;;0.00;0.00;;;;;;;;;;4951344;28;20260;-70
2022/10/10 11:07:56;;;;;;;0.00;0.00;;;;;;;;;;4969134;28;20221;-69
2022/10/10 11:10:27;;;;;;;0.00;0.00;;;;;;;;;;4966524;28;20214;-70
2022/10/10 11:13:00;;;;;;;0.00;0.00;;;;;;;;;;4969627;28;20209;-70
2022/10/10 11:15:30;;;;;;;0.00;0.00;;;;;;;;;;4966743;28;20210;-70
2022/10/10 11:17:59;;;;;;;0.00;0.00;;;;;;;;;;4965505;28;20218;-70
2022/10/10 11:20:29;;;;;;;0.00;0.00;;;;;;;;;;4966843;28;20305;-69
2022/10/10 11:22:59;;;;;;;0.00;0.00;;;;;;;;;;4955077;28;20202;-69
2022/10/10 11:25:30;;;;;;;0.00;0.00;;;;;;;;;;4951714;28;20218;-70
2022/10/10 11:28:01;;;;;;;0.00;0.00;;;;;;;;;;4955618;28;20233;-70
2022/10/10 11:30:30;;;;;;;0.00;0.00;;;;;;;;;;4952272;28;20209;-69
2022/10/10 11:33:00;;;;;;;0.00;0.00;;;;;;;;;;4959141;28;20246;-70
2022/10/10 11:35:30;;;;;;;0.00;0.00;;;;;;;;;;4967633;28;20313;-70
2022/10/10 11:38:11;;;;;;;0.00;0.00;;;;;;;;;;4951650;28;20315;-70
2022/10/10 11:40:44;;;;;;;0.00;0.00;;;;;;;;;;4954661;28;20240;-70
2022/10/10 11:43:17;;;;;;;0.00;0.00;;;;;;;;;;4954498;28;20225;-69
2022/10/10 11:45:46;;;;;;;0.00;0.00;;;;;;;;;;4957524;28;20217;-69
2022/10/10 11:48:20;;;;;;;0.00;0.00;;;;;;;;;;4965858;28;20248;-69
2022/10/10 11:50:52;;;;;;;0.00;0.00;;;;;;;;;;4954286;28;20234;-70
2022/10/10 11:53:22;;;;;;;0.00;0.00;;;;;;;;;;4951989;28;20226;-69
2022/10/10 11:55:53;;;;;;;0.00;0.00;;;;;;;;;;4967576;28;20209;-70
2022/10/10 11:58:26;;;;;;;0.00;0.00;;;;;;;;;;4968966;28;20234;-69
2022/10/10 12:00:55;;;;;;;0.00;0.00;;;;;;;;;;4957013;28;20206;-69
2022/10/10 12:03:24;;;;;;;0.00;0.00;;;;;;;;;;4957245;28;20678;-69
2022/10/10 12:05:54;;;;;;;0.00;0.00;;;;;;;;;;4954228;28;20194;-69
2022/10/10 12:08:24;;;;;;;0.00;0.00;;;;;;;;;;4951497;28;20321;-69
2022/10/10 12:10:53;;;;;;;0.00;0.00;;;;;;;;;;4966636;28;20297;-70
2022/10/10 12:13:26;;;;;;;0.00;0.00;;;;;;;;;;4963995;28;20222;-69
2022/10/10 12:15:55;;;;;;;0.00;0.00;;;;;;;;;;4951804;28;20664;-69
2022/10/10 12:18:27;;;;;;;0.00;0.00;;;;;;;;;;4966708;28;20255;-69
2022/10/10 12:21:05;;;;;;;0.00;0.00;;;;;;;;;;4966771;28;20687;-69
2022/10/10 12:23:33;;;;;;;0.00;0.00;;;;;;;;;;4963079;28;20305;-70
2022/10/10 12:26:00;;;;;;;0.00;0.00;;;;;;;;;;4951346;28;20611;-69
2022/10/10 12:28:34;;;;;;;0.00;0.00;;;;;;;;;;4949387;28;20222;-69
2022/10/10 12:31:20;;;;;;;0.00;0.00;;;;;;;;;;4957981;28;20217;-68
2022/10/10 12:34:06;;;;;;;0.00;0.00;;;;;;;;;;4965561;28;20240;-69
2022/10/10 12:36:57;;;;;;;0.00;0.00;;;;;;;;;;4956217;28;20205;-70
2022/10/10 12:39:46;;;;;;;0.00;0.00;;;;;;;;;;4946515;28;20265;-71
2022/10/10 12:42:32;;;;;;;0.00;0.00;;;;;;;;;;4949664;28;20206;-69
2022/10/10 12:45:01;;;;;;;0.00;0.00;;;;;;;;;;4953643;28;20205;-69
2022/10/10 12:47:34;;;;;;;0.00;0.00;;;;;;;;;;4954606;28;20229;-69
2022/10/10 12:50:03;;;;;;;0.00;0.00;;;;;;;;;;4954417;28;20216;-69
2022/10/10 12:52:34;;;;;;;0.00;0.00;;;;;;;;;;4952994;28;20194;-70
2022/10/10 12:55:03;;;;;;;0.00;0.00;;;;;;;;;;4954662;28;20202;-69
2022/10/10 12:57:32;;;;;;;0.00;0.00;;;;;;;;;;4956548;28;20227;-70
2022/10/10 13:00:06;;;;;;;0.00;0.00;;;;;;;;;;4959410;28;20218;-70
2022/10/10 13:02:34;;;;;;;0.00;0.00;;;;;;;;;;4956954;28;20268;-69
2022/10/10 13:05:03;;;;;;;0.00;0.00;;;;;;;;;;4954259;28;20206;-69
2022/10/10 13:07:31;;;;;;;0.00;0.00;;;;;;;;;;4970321;28;20672;-69
2022/10/10 13:10:04;;;;;;;0.00;0.00;;;;;;;;;;4957110;28;20314;-70
2022/10/10 13:12:33;;;;;;;0.00;0.00;;;;;;;;;;4951964;28;20203;-69
2022/10/10 13:15:00;;;;;;;0.00;0.00;;;;;;;;;;4955716;28;20285;-69
2022/10/10 13:17:29;;;;;;;0.00;0.00;;;;;;;;;;4968827;28;20249;-69
2022/10/10 13:19:58;;;;;;;0.00;0.00;;;;;;;;;;4955455;28;20226;-70
2022/10/10 13:22:26;;;;;;;0.00;0.00;;;;;;;;;;4957078;28;20212;-70
2022/10/10 13:24:54;;;;;;;0.00;0.00;;;;;;;;;;4968869;28;20293;-69
2022/10/10 13:27:23;;;;;;;0.00;0.00;;;;;;;;;;4968035;28;20304;-70
2022/10/10 13:29:51;;;;;;;0.00;0.00;;;;;;;;;;4959812;28;20263;-69
2022/10/10 13:32:20;;;;;;;0.00;0.00;;;;;;;;;;4954651;28;20213;-70
2022/10/10 13:34:50;;;;;;;0.00;0.00;;;;;;;;;;4958773;28;20216;-70
2022/10/10 13:37:19;;;;;;;0.00;0.00;;;;;;;;;;4967568;28;20250;-69
2022/10/10 13:39:48;;;;;;;0.00;0.00;;;;;;;;;;4966188;28;20238;-70
2022/10/10 13:42:28;;;;;;;0.00;0.00;;;;;;;;;;4955872;28;20317;-70
2022/10/10 13:44:58;;;;;;;0.00;0.00;;;;;;;;;;4951549;28;20222;-69
2022/10/10 13:47:51;;;;;;;0.00;0.00;;;;;;;;;;4965859;28;20223;-69
2022/10/10 13:50:25;;;;;;;0.00;0.00;;;;;;;;;;4946134;28;20213;-70
2022/10/10 13:53:07;;;;;;;0.00;0.00;;;;;;;;;;4952035;28;20205;-69
2022/10/10 13:55:38;;;;;;;0.00;0.00;;;;;;;;;;4973095;28;20217;-69
2022/10/10 13:58:07;;;;;;;0.00;0.00;;;;;;;;;;4954113;28;20871;-69
2022/10/10 14:00:34;;;;;;;0.00;0.00;;;;;;;;;;4951401;28;20221;-70
2022/10/10 14:03:02;;;;;;;0.00;0.00;;;;;;;;;;4966764;28;20229;-70
2022/10/10 14:05:31;;;;;;;0.00;0.00;;;;;;;;;;4958294;28;20210;-69
2022/10/10 14:07:59;;;;;;;0.00;0.00;;;;;;;;;;4953978;28;20284;-69
2022/10/10 14:10:28;;;;;;;0.00;0.00;;;;;;;;;;4960878;28;20232;-70
2022/10/10 14:12:57;;;;;;;0.00;0.00;;;;;;;;;;4950181;28;20238;-69
2022/10/10 14:15:32;;;;;;;0.00;0.00;;;;;;;;;;4951436;28;20210;-69
2022/10/10 14:17:59;;;;;;;0.00;0.00;;;;;;;;;;4950584;28;20222;-69
2022/10/10 14:20:27;;;;;;;0.00;0.00;;;;;;;;;;4967901;28;20230;-70
2022/10/10 14:22:56;;;;;;;0.00;0.00;;;;;;;;;;4951516;28;20199;-69
2022/10/10 14:25:23;;;;;;;0.00;0.00;;;;;;;;;;4951979;28;20199;-69
2022/10/10 14:27:50;;;;;;;0.00;0.00;;;;;;;;;;4950526;28;20221;-69
2022/10/10 14:30:17;;;;;;;0.00;0.00;;;;;;;;;;4953101;28;20214;-71
2022/10/10 14:32:45;;;;;;;0.00;0.00;;;;;;;;;;4952051;28;20258;-70
2022/10/10 14:35:13;;;;;;;0.00;0.00;;;;;;;;;;4955129;28;20203;-69
2022/10/10 14:37:40;;;;;;;0.00;0.00;;;;;;;;;;4967112;28;20250;-69
2022/10/10 14:40:17;;;;;;;0.00;0.00;;;;;;;;;;4953526;28;20301;-69
2022/10/10 14:42:45;;;;;;;0.00;0.00;;;;;;;;;;4964243;28;20285;-70
2022/10/10 14:45:14;;;;;;;0.00;0.00;;;;;;;;;;4966845;28;20313;-70
2022/10/10 14:47:41;;;;;;;0.00;0.00;;;;;;;;;;4954254;28;20273;-70